• Join FlightAware (Why Join?)
  • Login
  • US Flag 
02:27PM EDT


 

Airport Tracker/Info


-or-


 

Live Flight TrackerFlight Track Log ✈ UAL3744 ✈ 19-Apr-2013 ✈ KCHS - KIAD

Flight Track Log - Related Links

Times and Time Zones

All times are in EDT time to prevent confusion due to time zone crossing. See the UAL3744 flight status page for this flight to view local times or setup timezone preferences in your user account.

Time Position Orientation Groundspeed Altitude Reporting Facility
EDT Latitude Longitude Course Direction KTS MPH feet Rate Location/Type
05:53AM 32.8889 -79.9883 14° North 260 299 4,300  Level Jacksonville Center
05:54AM 33.2411 -79.9284 North  Level FlightAware Approximate
05:54AM 32.9594 -79.9736 10° North 280 322 6,700  Level Jacksonville Center
05:55AM 33.3586 -79.8874 23° Northeast  Level FlightAware Approximate
05:55AM 33.0406 -79.9586 North 286 329 9,200  Level Jacksonville Center
05:56AM 33.4790 -79.8584 13° North  Level FlightAware Approximate
05:56AM 33.1319 -79.9433 North 298 343 10,900  Level Jacksonville Center
05:57AM 33.5988 -79.8242 13° North  Level FlightAware Approximate
05:57AM 33.2358 -79.9225 10° North 343 395 12,700  Level Jacksonville Center
05:58AM 33.7185 -79.7895 14° North  Level FlightAware Approximate
05:58AM 33.3336 -79.9044 North 382 440 15,000  Level Jacksonville Center
05:59AM 33.4417 -79.8808 10° North 389 448 16,700 1,800 Climbing Jacksonville Center
06:00AM 33.5514 -79.8497 13° North 389 448 18,600 1,800 Climbing Jacksonville Center
06:01AM 33.6614 -79.8208 12° North 394 453 20,300 1,740 Climbing Jacksonville Center
06:02AM 33.7772 -79.7844 15° North 406 467 22,100 1,740 Climbing Jacksonville Center
06:03AM 33.8911 -79.7528 13° North 418 481 23,800 1,500 Climbing Jacksonville Center
06:04AM 34.0072 -79.7211 13° North 418 481 25,200 1,140 Climbing Jacksonville Center
06:05AM 34.2047 -79.6672 13° North 419 482 26,900 960 Climbing Washington Center
06:06AM 34.3214 -79.6103 22° Northeast 430 495 27,800 900 Climbing Washington Center
06:07AM 34.4381 -79.5503 23° Northeast 440 506 28,800 600 Climbing Washington Center
06:08AM 34.5592 -79.4856 24° Northeast 455 524 29,000 60 Climbing Washington Center
06:09AM 34.6822 -79.4233 23° Northeast 466 536 29,000  Level Washington Center
06:10AM 34.8053 -79.3583 23° Northeast 471 542 29,000  Level Washington Center
06:11AM 34.9261 -79.2931 24° Northeast 471 542 29,000  Level Washington Center
06:12AM 35.0514 -79.2278 23° Northeast 471 542 29,000  Level Washington Center
06:13AM 35.1764 -79.1622 23° Northeast 471 542 29,000  Level Washington Center
06:14AM 35.2994 -79.0964 24° Northeast 476 548 29,000  Level Washington Center
06:15AM 35.4244 -79.0281 24° Northeast 476 548 29,000  Level Washington Center
06:16AM 35.5494 -78.9619 23° Northeast 482 555 29,000  Level Washington Center
06:17AM 35.6744 -78.8956 23° Northeast 482 555 29,000 -120 Level Washington Center
06:18AM 35.7994 -78.8289 23° Northeast 482 555 28,800 -360 Descending Washington Center
06:19AM 35.9222 -78.7597 25° Northeast 482 555 28,300 -540 Descending Washington Center
06:20AM 36.0450 -78.6900 25° Northeast 482 555 27,800 -600 Descending Washington Center
06:21AM 36.1678 -78.6203 25° Northeast 482 555 27,200 -420 Descending Washington Center
06:22AM 36.2886 -78.5503 25° Northeast 482 555 27,000 -120 Descending Washington Center
06:23AM 36.4114 -78.4800 25° Northeast 482 555 27,000  Level Washington Center
06:24AM 36.5319 -78.4122 24° Northeast 477 549 27,000  Level Washington Center
06:25AM 36.6375 -78.3486 26° Northeast 472 543 27,000 -300 Level Washington Center
06:26AM 36.7708 -78.2731 24° Northeast 466 536 26,400 -1,140 Descending Washington Center
06:27AM 36.8933 -78.2044 24° Northeast 471 542 24,800 -1,500 Descending Washington Center
06:28AM 37.0139 -78.1306 26° Northeast 471 542 23,400 -1,440 Descending Washington Center
06:29AM 37.1383 -78.0592 25° Northeast 476 548 22,000 -720 Descending Washington Center
06:30AM 37.2586 -77.9900 25° Northeast 471 542 22,000  Level Washington Center
06:31AM 37.3792 -77.9153 26° Northeast 471 542 22,000  Level Washington Center
06:32AM 37.4992 -77.8456 25° Northeast 471 542 22,000  Level Washington Center
06:33AM 37.6194 -77.7758 25° Northeast 471 542 22,000 -180 Level Washington Center
06:34AM 37.7333 -77.7083 25° Northeast 463 533 21,700 -1,680 Descending Washington Center
06:35AM 37.8367 -77.6481 25° Northeast 439 505 18,700 -3,060 Descending Washington Center
06:36AM 37.9419 -77.5850 25° Northeast 417 480 15,600 -3,000 Descending Washington Center
06:37AM 38.0367 -77.5347 23° Northeast 404 465 12,800 -2,760 Descending Washington Center
06:38AM 38.1375 -77.4742 25° Northeast 398 458 10,100 -1,440 Descending Washington Center
06:39AM 38.2239 -77.4233 25° Northeast 374 430 10,000 -60 Descending Washington Center
06:40AM 38.3122 -77.3725 24° Northeast 351 404 10,000 -840 Level Washington Center
06:41AM 38.4042 -77.3589 North 338 389 8,400 -1,740 Descending Washington Center
06:42AM 38.4958 -77.3636 358° North 323 372 6,600 -1,680 Descending Washington Center
06:43AM 38.5833 -77.3658 359° North 318 366 5,100 -1,320 Descending Washington Center
06:44AM 38.6833 -77.3667 360° North 306 352 4,100 -600 Descending Potomac TRACON
06:45AM 38.7667 -77.3500 North 304 350 4,000 -60 Descending Potomac TRACON
06:46AM 38.8333 -77.3500 360° North 301 346 4,000  Level Potomac TRACON
06:47AM 38.9167 -77.3500 360° North 304 350 4,000  Level Potomac TRACON
06:48AM 38.9833 -77.3500 360° North 306 352 4,000 -960 Level Potomac TRACON
06:49AM 39.0667 -77.3500 360° North 301 346 2,300 -1,020 Descending Potomac TRACON
06:50AM 39.1000 -77.4167 303° West 218 251 2,000 -300 Descending Potomac TRACON
06:51AM 39.0500 -77.4333 195° South 143 165 1,800 -240 Descending Potomac TRACON